Tiempo atmosférico en la estación meteorológica de Najera, La Rioja (500 m.)



Fecha
DESCASC
Temp. máxima en grados centígrados (hora)
DESCASC
Temp. mínima en grados centígrados (hora)
DESCASC
Temp. media en grados centígrados
DESCASC
Racha de viento máxima en m/sg (hora)
DESCASC
Velocidad máxima media en intervalos de 10 minutos(hora)
DESCASC
Precipitaciones diarias en mm
DESCASC
Precipitaciones de 00:00 a 06:00 en mm
DESCASC
Precipitaciones de 06:00 a 12:00 en mm
DESCASC
Precipitaciones de 12:00 a 18:00 en mm
DESCASC
Precipitaciones de 18:00 a 24:00 en mm
DESCASC
09-01-2021 0 (16:10) -1.5 (-00:0) -0.8 3.89 (00:40) 1.94 (00:40) 6.2 0.6 1.8 2.4 1.4
06-01-2021 7.6 (16:50) -1.8 (-00:0) 2.9 4.17 (08:50) 1.94 (08:40) 0 0 0 0 0
18-01-2021 12.3 (16:40) 0.9 (00:00) 6.6 5.28 (14:50) 2.5 (14:10) 0 0 0 0 0
16-01-2021 12.2 (16:10) -0.1 (00:00) 6 5 (05:20) 2.5 (06:00) 0 0 0 0 0
08-01-2021 1.7 (15:30) -1.9 (-00:0) -0.1 5.28 (13:30) 2.5 (23:20) 0 0 0 0 0
07-01-2021 4.9 (16:30) -5 (-00:0) 0 4.72 (23:59) 2.5 (23:59) 0 0 0 0 0
05-01-2021 3.4 (16:30) -0.1 (00:00) 1.7 5.83 (13:10) 2.78 (19:00) 0 0 0 0 0
24-12-2020 10 (16:10) 5.5 (00:00) 7.8 6.67 (20:30) 3.06 (14:20) 0.4 0.4 0 0 0
12-01-2021 6.6 (16:10) -0.6 (-00:0) 3 5.28 (14:10) 3.06 (02:30) 0 0 0 0 0
23-12-2020 10.7 (15:50) 6.1 (00:00) 8.4 4.44 (18:40) 3.06 (18:40) 0.2 0 0 0 0.2
17-01-2021 11.6 (15:30) -1.3 (-00:0) 5.2 7.22 (10:10) 3.33 (10:10) 0 0 0 0 0
13-01-2021 9.4 (16:30) 0.5 (00:00) 4.9 5.83 (03:00) 3.33 (02:50) 0 0 0 0 0
26-12-2020 5.9 (14:00) 2 (00:00) 4 6.67 (01:00) 3.33 (03:30) 1.2 0.6 0.2 0.4 0
11-01-2021 5.4 (15:10) -2.4 (-00:0) 1.5 7.22 (05:10) 3.33 (15:20) 0 0 0 0 0
19-01-2021 5.6 (13:20) -2.6 (-00:0) 1.5 5.28 (13:00) 3.61 (13:00) 0 0 0 0 0
03-01-2021 4.5 (14:40) 0.5 (00:00) 2.5 9.17 (18:40) 3.61 (18:40) 6 0 0.6 0 5.4
14-01-2021 7.7 (13:40) -0.3 (08:20) 3.7 5.83 (06:40) 3.61 (06:40) 0 0 0 0 0
30-12-2020 7.4 (13:40) 2.9 (00:00) 5.2 8.61 (03:10) 3.89 (03:10) 0 0 0 0 0
10-01-2021 2.7 (13:40) -1.3 (21:50) 0.7 7.22 (16:30) 3.89 (16:50) 5 3.6 1.4 0 0
20-01-2021 13.1 (16:20) 1.7 (00:00) 7.4 9.17 (16:00) 3.89 (16:40) 0 0 0 0 0
31-12-2020 9.3 (15:40) -0.1 (00:00) 4.6 8.61 (17:20) 4.17 (17:20) 2.8 0 0 0.2 2.6
15-01-2021 9.2 (16:10) 1.8 (00:00) 5.5 7.5 (11:20) 4.17 (11:30) 0 0 0 0 0
25-12-2020 6.7 (15:30) 2.6 (00:00) 4.6 8.89 (13:10) 4.17 (13:10) 0.4 0 0 0.4 0
29-12-2020 8.3 (15:00) 2.4 (00:00) 5.4 11.67 (02:20) 4.72 (13:10) 0.2 0 0 0.2 0
04-01-2021 3.9 (15:40) -2.3 (-00:0) 0.8 10.56 (15:50) 5 (15:50) 0 0 0 0 0
21-01-2021 14.8 (16:00) 3.3 (00:00) 9.1 10.56 (20:40) 5.28 (22:50) 0 0 0 0 0
02-01-2021 2.7 (16:10) 0.4 (00:00) 1.6 11.67 (00:20) 5.56 (05:50) 5.4 2.4 3 0 0
01-01-2021 8.1 (13:30) 1.8 (00:00) 5 11.39 (19:20) 6.67 (19:20) 0.2 0.2 0 0 0
27-12-2020 10.2 (23:59) -1.1 (-00:0) 4.5 16.39 (21:30) 8.33 (21:30) 0 0 0 0 0
28-12-2020 10.2 (00:00) 3.7 (00:00) 6.9 20 (00:10) 8.61 (13:00) 2.4 2.4 0 0 0

Gráficas

Temp. máximas Temp. mínimas Temp. medias Precipitaciones Rachas de viento máximas Velocidades máximas media en intervalos de 10 minutos

Datos horarios

Fecha y hora oficial Temperatura (ºC) Velocidad del viento (km/h) Dirección del viento Racha (km/h) Dirección de racha Precipitación (mm) Presión (hPa) Tendencia (hPa) Humedad (%)
2021-01-21 23:00:00 13.3 17 Sudoeste 36 Sudoeste 0 -- -- 58
2021-01-21 22:00:00 13.8 14 Sudoeste 37 Sudoeste 0 -- -- 52
2021-01-21 21:00:00 13.9 13 Sudoeste 38 Sudoeste 0 -- -- 53
2021-01-21 20:00:00 13.7 17 Sudoeste 32 Oeste 0 -- -- 54
2021-01-21 19:00:00 11.9 6 Sudoeste 21 Oeste 0 -- -- 68
2021-01-21 18:00:00 13.1 3 Sudoeste 26 Sudoeste 0 -- -- 67
2021-01-21 17:00:00 14.3 9 Oeste 18 Sudoeste 0 -- -- 60
2021-01-21 16:00:00 14.8 8 Sudoeste 23 Sudoeste 0 -- -- 60
2021-01-21 15:00:00 9.4 4 Oeste 14 Nordeste 0 -- -- 82
2021-01-21 14:00:00 9.3 8 Norte 18 Norte 0 -- -- 82
2021-01-21 13:00:00 10.1 4 Sudeste 13 Sur 0 -- -- 78
2021-01-21 12:00:00 8.6 2 Norte 10 Nordeste 0 -- -- 85
2021-01-21 11:00:00 6.3 4 Noroeste 10 Nordeste 0 -- -- 95
2021-01-21 10:00:00 4.7 4 Norte 12 Norte 0 -- -- 97
2021-01-21 09:00:00 3.4 2 Nordeste 6 Sudeste 0 -- -- 95
2021-01-21 08:00:00 3.7 5 Sudoeste 12 Sur 0 -- -- 95
2021-01-21 07:00:00 4 4 Sudeste 8 Este 0 -- -- 96
2021-01-21 06:00:00 3.6 4 Sudeste 9 Sudoeste 0 -- -- 93
2021-01-21 05:00:00 3.9 2 Sudeste 8 Sudeste 0 -- -- 94
2021-01-21 04:00:00 4 0 Calma 8 Sudeste 0 -- -- 92
2021-01-21 03:00:00 3.9 2 Norte 8 Sudoeste 0 -- -- 91
2021-01-21 02:00:00 4.7 2 Sudeste 5 Este 0 -- -- 88
2021-01-21 01:00:00 6 2 Este 10 Sudeste 0 -- -- 86
2021-01-21 00:00:00 6.8 4 Nordeste 11 Este 0 -- -- 84
2021-01-20 23:00:00 6.7 6 Nordeste 15 Este 0 -- -- 84
2021-01-20 22:00:00 7 7 Nordeste 15 Norte 0 -- -- 82
2021-01-20 21:00:00 7.9 6 Norte 19 Nordeste 0 -- -- 79
2021-01-20 20:00:00 9.4 3 Norte 6 Oeste 0 -- -- 73
2021-01-20 19:00:00 10.4 4 Sudoeste 17 Sudoeste 0 -- -- 67
2021-01-20 18:00:00 11.2 10 Sur 26 Sur 0 -- -- 63
2021-01-20 17:00:00 12.8 9 Sudoeste 28 Sur 0 -- -- 55
2021-01-20 16:00:00 12.8 12 Sudoeste 33 Sudoeste 0 -- -- 55
2021-01-20 15:00:00 11.6 6 Nordeste 15 Norte 0 -- -- 67
2021-01-20 14:00:00 10.3 9 Nordeste 15 Norte 0 -- -- 71
2021-01-20 13:00:00 7.7 5 Norte 22 Norte 0 -- -- 80
2021-01-20 12:00:00 6.7 5 Noroeste 24 Norte 0 -- -- 84
2021-01-20 11:00:00 5.5 6 Norte 21 Norte 0 -- -- 87
2021-01-20 10:00:00 3.4 8 Norte 15 Nordeste 0 -- -- 93
2021-01-20 09:00:00 1.8 3 Sur 10 Sudeste 0 -- -- 95
2021-01-20 08:00:00 1.9 3 Sur 10 Sudeste 0 -- -- 94
2021-01-20 07:00:00 2.3 2 Sur 6 Noroeste 0 -- -- 94
2021-01-20 06:00:00 2.3 4 Oeste 7 Oeste 0 -- -- 94
2021-01-20 05:00:00 2.4 0 Calma 4 Sudeste 0 -- -- 95
2021-01-20 04:00:00 2.4 2 Sudeste 12 Nordeste 0 -- -- 95
2021-01-20 03:00:00 2.5 0 Calma 6 Este 0 -- -- 96
2021-01-20 02:00:00 2.4 2 Este 5 Sudeste 0 -- -- 96
2021-01-20 01:00:00 2.3 2 Este 23 Nordeste 0 -- -- 95
2021-01-20 00:00:00 2.2 5 Este 13 Este 0 -- -- 97
2021-01-19 23:00:00 2 0 Calma 13 Norte 0 -- -- 96
2021-01-19 22:00:00 2.2 5 Norte 11 Norte 0 -- -- 95
2021-01-19 21:00:00 2.6 2 Norte 5 Noroeste 0 -- -- 95
2021-01-19 20:00:00 2.7 0 Calma 4 Sudeste 0 -- -- 93
2021-01-19 19:00:00 3.3 3 Noroeste 6 Noroeste 0 -- -- 92
2021-01-19 18:00:00 3.7 0 Calma 9 Este 0 -- -- 92
2021-01-19 17:00:00 3.8 6 Nordeste 18 Nordeste 0 -- -- 91
2021-01-19 16:00:00 4.5 10 Nordeste 17 Este 0 -- -- 89
2021-01-19 15:00:00 4.6 9 Nordeste 17 Nordeste 0 -- -- 89
2021-01-19 14:00:00 4.8 9 Nordeste 18 Nordeste 0 -- -- 88
2021-01-19 13:00:00 5.2 13 Nordeste 19 Este 0 -- -- 86
2021-01-19 12:00:00 3.7 3 Sur 8 Sur 0 -- -- 98
2021-01-19 11:00:00 1 2 Oeste 5 Noroeste 0 -- -- 98
2021-01-19 10:00:00 -1.5 0 Calma 5 Sur 0 -- -- 97
2021-01-19 09:00:00 -2.3 3 Sur 8 Sudoeste 0 -- -- 96
2021-01-19 08:00:00 -2.5 3 Sur 8 Sur 0 -- -- 95
2021-01-19 07:00:00 -2.2 3 Sur 6 Sudeste 0 -- -- 96
2021-01-19 06:00:00 -1.9 3 Sur 5 Sur 0 -- -- 95
2021-01-19 05:00:00 -1.5 2 Sur 6 Sudeste 0 -- -- 95
2021-01-19 04:00:00 -1.2 4 Sur 8 Sur 0 -- -- 95
2021-01-19 03:00:00 -0.9 3 Sur 8 Sur 0 -- -- 95
2021-01-19 02:00:00 -0.6 3 Sur 6 Sur 0 -- -- 94
2021-01-19 01:00:00 0.1 4 Sur 6 Sur 0 -- -- 94
2021-01-19 00:00:00 0.9 3 Sur 7 Sudoeste 0 -- -- 93
2021-01-18 23:00:00 1.9 3 Sur 5 Sur 0 -- -- 91
2021-01-18 22:00:00 3 0 Calma 6 Sur 0 -- -- 89
2021-01-18 21:00:00 4.4 3 Sudoeste 5 Sudoeste 0 -- -- 89
2021-01-18 20:00:00 6.2 4 Sur 8 Sudoeste 0 -- -- 84
2021-01-18 19:00:00 7.9 4 Sur 13 Oeste 0 -- -- 78
2021-01-18 18:00:00 9.9 6 Oeste 14 Oeste 0 -- -- 72
2021-01-18 17:00:00 12.1 5 Noroeste 14 Oeste 0 -- -- 67
2021-01-18 16:00:00 12 5 Noroeste 17 Oeste 0 -- -- 67
2021-01-18 15:00:00 11.8 8 Noroeste 19 Noroeste 0 -- -- 66
2021-01-18 14:00:00 11 7 Noroeste 17 Noroeste 0 -- -- 70
2021-01-18 13:00:00 10.4 5 Oeste 13 Oeste 0 -- -- 72
2021-01-18 12:00:00 9.5 4 Noroeste 8 Noroeste 0 -- -- 76
2021-01-18 11:00:00 7.5 2 Norte 7 Noroeste 0 -- -- 84
2021-01-18 10:00:00 4.9 3 Oeste 7 Sur 0 -- -- 93
2021-01-18 09:00:00 4.2 4 Sur 8 Sur 0 -- -- 95
2021-01-18 08:00:00 3.9 0 Calma 5 Noroeste 0 -- -- 96
2021-01-18 07:00:00 3.6 5 Sur 10 Sur 0 -- -- 96
2021-01-18 06:00:00 3.2 3 Sur 8 Sudeste 0 -- -- 96
2021-01-18 05:00:00 3.4 3 Sudoeste 9 Sur 0 -- -- 94
2021-01-18 04:00:00 4.5 0 Calma 5 Sur 0 -- -- 93
2021-01-18 03:00:00 5.6 3 Sur 7 Sur 0 -- -- 91
2021-01-18 02:00:00 6.7 3 Sudoeste 15 Oeste 0 -- -- 92
2021-01-18 01:00:00 6.3 2 Sudeste 5 Sur 0 -- -- 92
2021-01-18 00:00:00 6.3 2 Sur 6 Sur 0 -- -- 89
2021-01-17 23:00:00 6.8 4 Sur 7 Sudeste 0 -- -- 88
2021-01-17 22:00:00 8 2 Oeste 10 Oeste 0 -- -- 82
2021-01-17 21:00:00 7.9 3 Sur 8 Sudoeste 0 -- -- 83
2021-01-17 20:00:00 8.5 2 Sudoeste 13 Oeste 0 -- -- 79
2021-01-17 19:00:00 9.5 6 Oeste 15 Oeste 0 -- -- 74
2021-01-17 18:00:00 10.4 8 Oeste 13 Noroeste 0 -- -- 71
2021-01-17 17:00:00 10.8 7 Oeste 23 Oeste 0 -- -- 70
2021-01-17 16:00:00 11.4 11 Oeste 21 Sudoeste 0 -- -- 67
2021-01-17 15:00:00 11.5 6 Oeste 17 Oeste 0 -- -- 67
2021-01-17 14:00:00 10.1 3 Sudeste 7 Sur 0 -- -- 53
2021-01-17 13:00:00 8.6 3 Sudoeste 24 Oeste 0 -- -- 56
2021-01-17 12:00:00 7.2 6 Oeste 15 Oeste 0 -- -- 57
2021-01-17 11:00:00 4.5 7 Sudoeste 26 Oeste 0 -- -- 67
2021-01-17 10:00:00 1.2 8 Sudoeste 19 Oeste 0 -- -- 82
2021-01-17 09:00:00 -1 4 Sudeste 9 Sur 0 -- -- 87
2021-01-17 08:00:00 -0.6 5 Sur 10 Sur 0 -- -- 87
2021-01-17 07:00:00 -0.9 4 Sudoeste 9 Sudoeste 0 -- -- 86
2021-01-17 06:00:00 -1.1 3 Sur 12 Sur 0 -- -- 88
2021-01-17 05:00:00 -1.3 0 Calma 6 Sudeste 0 -- -- 89
2021-01-17 04:00:00 -1 4 Sudoeste 10 Noroeste 0 -- -- 88
2021-01-17 03:00:00 -1 3 Oeste 6 Sur 0 -- -- 88
2021-01-17 02:00:00 -0.4 4 Sur 9 Sur 0 -- -- 86
2021-01-17 01:00:00 -0.4 3 Sudoeste 9 Oeste 0 -- -- 86
2021-01-17 00:00:00 -0.1 0 Calma 6 Sudeste 0 -- -- 86
2021-01-16 23:00:00 0.8 5 Sur 9 Sudoeste 0 -- -- 82
2021-01-16 22:00:00 2.1 2 Sur 13 Noroeste 0 -- -- 80
2021-01-16 21:00:00 3.5 2 Noroeste 6 Noroeste 0 -- -- 74
2021-01-16 20:00:00 5.6 2 Oeste 12 Oeste 0 -- -- 65
2021-01-16 19:00:00 7 4 Oeste 13 Oeste 0 -- -- 61
2021-01-16 18:00:00 9.4 6 Oeste 15 Oeste 0 -- -- 54
2021-01-16 17:00:00 12.1 3 Noroeste 12 Noroeste 0 -- -- 52
2021-01-16 16:00:00 11.9 8 Oeste 14 Oeste 0 -- -- 53
2021-01-16 15:00:00 11.5 4 Oeste 12 Noroeste 0 -- -- 55
2021-01-16 14:00:00 10.3 5 Noroeste 10 Noroeste 0 -- -- 54
2021-01-16 13:00:00 9.3 4 Noroeste 9 Oeste 0 -- -- 61
2021-01-16 12:00:00 7.2 4 Noroeste 8 Noroeste 0 -- -- 66
2021-01-16 11:00:00 5 4 Sur 11 Sudoeste 0 -- -- 72
2021-01-16 10:00:00 2.3 3 Sudoeste 12 Sur 0 -- -- 80
2021-01-16 09:00:00 1.6 4 Sur 13 Sur 0 -- -- 82
2021-01-16 08:00:00 2.2 6 Sur 15 Sur 0 -- -- 82
2021-01-16 07:00:00 3.7 5 Sur 15 Sur 0 -- -- 77
2021-01-16 06:00:00 5.4 9 Sudoeste 18 Sudoeste 0 -- -- 75
2021-01-16 05:00:00 5.3 7 Sudoeste 14 Sudoeste 0 -- -- 76
2021-01-16 04:00:00 4.2 5 Sudoeste 12 Oeste 0 -- -- 80
2021-01-16 03:00:00 3.4 3 Sudoeste 9 Oeste 0 -- -- 82
2021-01-16 02:00:00 2.9 4 Sudoeste 9 Sudoeste 0 -- -- 84
2021-01-16 01:00:00 3.4 3 Sudoeste 10 Sudoeste 0 -- -- 82
2021-01-16 00:00:00 5.3 5 Oeste 23 Oeste 0 -- -- 74
2021-01-15 23:00:00 5.9 8 Oeste 21 Oeste 0 -- -- 74
2021-01-15 22:00:00 5.4 6 Oeste 14 Oeste 0 -- -- 79
2021-01-15 21:00:00 5.5 4 Oeste 12 Oeste 0 -- -- 79
2021-01-15 20:00:00 5.8 5 Oeste 14 Oeste 0 -- -- 78
2021-01-15 19:00:00 5.7 5 Oeste 11 Oeste 0 -- -- 80
2021-01-15 18:00:00 7.3 5 Noroeste 11 Oeste 0 -- -- 75
2021-01-15 17:00:00 8.7 5 Noroeste 15 Oeste 0 -- -- 66
2021-01-15 16:00:00 9.1 6 Oeste 23 Oeste 0 -- -- 66
2021-01-15 15:00:00 8.6 9 Oeste 21 Oeste 0 -- -- 68
2021-01-15 14:00:00 7.5 9 Oeste 26 Oeste 0 -- -- 78
2021-01-15 13:00:00 7.4 5 Noroeste 23 Oeste 0 -- -- 74
2021-01-15 12:00:00 7 13 Oeste 27 Oeste 0 -- -- 79
2021-01-15 11:00:00 5.7 10 Oeste 22 Oeste 0 -- -- 88
2021-01-15 10:00:00 5 10 Noroeste 18 Noroeste 0 -- -- 85
2021-01-15 09:00:00 5 4 Oeste 20 Oeste 0 -- -- 84
2021-01-15 08:00:00 2.9 6 Sur 11 Sur 0 -- -- 91
2021-01-15 07:00:00 3.5 3 Sudoeste 8 Sur 0 -- -- 89
2021-01-15 06:00:00 2.8 4 Sur 11 Sur 0 -- -- 94
2021-01-15 05:00:00 1.8 6 Sur 11 Sudoeste 0 -- -- 94
2021-01-15 04:00:00 2.7 4 Sudeste 11 Sudoeste 0 -- -- 94
2021-01-15 03:00:00 2.4 3 Sudoeste 8 Sur 0 -- -- 95
2021-01-15 02:00:00 2.8 0 Calma 9 Sur 0 -- -- 93
2021-01-15 01:00:00 3.8 5 Sudeste 8 Sudoeste 0 -- -- 92
2021-01-15 00:00:00 4.2 4 Sudeste 9 Sur 0 -- -- 92
2021-01-14 23:00:00 4.8 5 Sudoeste 9 Nordeste 0 -- -- 91
2021-01-14 22:00:00 5.3 0 Calma 10 Nordeste 0 -- -- 88
2021-01-14 21:00:00 6.1 0 Calma 9 Sudoeste 0 -- -- 84
2021-01-14 20:00:00 6.5 8 Sudoeste 13 Sudoeste 0 -- -- 87
2021-01-14 19:00:00 6.1 7 Sur 16 Sur 0 -- -- 84
2021-01-14 18:00:00 6.1 3 Sudoeste 9 Sur 0 -- -- 78
2021-01-14 17:00:00 6.1 4 Sur 8 Sudoeste 0 -- -- 76
2021-01-14 16:00:00 5.5 5 Sudoeste 15 Oeste 0 -- -- 75
2021-01-14 15:00:00 6 8 Oeste 20 Oeste 0 -- -- 76
2021-01-14 14:00:00 7.7 9 Oeste 19 Oeste 0 -- -- 68
2021-01-14 13:00:00 7.2 9 Oeste 15 Oeste 0 -- -- 67
2021-01-14 12:00:00 5.6 6 Sur 16 Sur 0 -- -- 71
2021-01-14 11:00:00 2.8 8 Sur 19 Sudoeste 0 -- -- 73
2021-01-14 10:00:00 0.4 9 Sur 17 Sudoeste 0 -- -- 77
2021-01-14 09:00:00 -0.3 9 Sur 18 Sudoeste 0 -- -- 78
2021-01-14 08:00:00 -0.1 9 Sur 20 Sudoeste 0 -- -- 82
2021-01-14 07:00:00 0.4 12 Sudoeste 21 Sur 0 -- -- 82
2021-01-14 06:00:00 0.7 9 Sur 18 Sur 0 -- -- 83
2021-01-14 05:00:00 1 11 Sur 18 Sudoeste 0 -- -- 84
2021-01-14 04:00:00 0.7 8 Sur 15 Sur 0 -- -- 83
2021-01-14 03:00:00 0.4 8 Sur 16 Sur 0 -- -- 84
2021-01-14 02:00:00 0.3 6 Sur 14 Sudoeste 0 -- -- 85
2021-01-14 01:00:00 0.7 8 Sudoeste 14 Sur 0 -- -- 86
2021-01-14 00:00:00 0.6 5 Sur 11 Sudoeste 0 -- -- 87
2021-01-13 23:00:00 0.8 6 Sur 12 Sur 0 -- -- 88
2021-01-13 22:00:00 0.5 5 Sur 12 Sur 0 -- -- 90
2021-01-13 21:00:00 1.3 8 Sur 13 Sur 0 -- -- 88
2021-01-13 20:00:00 2.3 6 Sur 13 Sur 0 -- -- 85
2021-01-13 19:00:00 3.8 6 Sur 13 Sudoeste 0 -- -- 80
2021-01-13 18:00:00 6.4 2 Sudoeste 9 Noroeste 0 -- -- 72
2021-01-13 17:00:00 8.9 4 Noroeste 12 Oeste 0 -- -- 64
2021-01-13 16:00:00 9.2 6 Noroeste 14 Noroeste 0 -- -- 62
2021-01-13 15:00:00 8.1 4 Oeste 12 Oeste 0 -- -- 68
2021-01-13 14:00:00 7.6 3 Oeste 9 Oeste 0 -- -- 72
2021-01-13 13:00:00 5.4 2 Sudeste 6 Sur 0 -- -- 77
2021-01-13 12:00:00 4.3 2 Nordeste 8 Sur 0 -- -- 81
2021-01-13 11:00:00 3.5 4 Sudoeste 12 Sur 0 -- -- 80
2021-01-13 10:00:00 2.7 6 Sur 13 Sudoeste 0 -- -- 82
2021-01-13 09:00:00 1.8 5 Sur 15 Sur 0 -- -- 84
2021-01-13 08:00:00 1.4 7 Sur 16 Sur 0 -- -- 82
2021-01-13 07:00:00 1.8 2 Sudoeste 11 Sudoeste 0 -- -- 82
2021-01-13 06:00:00 1.5 6 Sudoeste 16 Sudoeste 0 -- -- 81
2021-01-13 05:00:00 0.7 8 Sudoeste 17 Sudoeste 0 -- -- 83
2021-01-13 04:00:00 1.1 3 Sudoeste 19 Sudoeste 0 -- -- 82
2021-01-13 03:00:00 1.9 12 Sudoeste 21 Sur 0 -- -- 79
2021-01-13 02:00:00 2.1 8 Sudoeste 17 Sur 0 -- -- 80
2021-01-13 01:00:00 1.8 8 Sur 15 Sudoeste 0 -- -- 82
2021-01-13 00:00:00 1.3 8 Sur 18 Sudoeste 0 -- -- 82
2021-01-12 23:00:00 1.3 8 Sur 18 Sur 0 -- -- 81
2021-01-12 22:00:00 1.3 7 Sur 13 Sur 0 -- -- 81
2021-01-12 21:00:00 1.5 5 Sur 12 Sur 0 -- -- 82
2021-01-12 20:00:00 1 5 Sur 12 Sur 0 -- -- 83
2021-01-12 19:00:00 2.1 6 Sur 12 Sudoeste 0 -- -- 77
2021-01-12 18:00:00 3.7 6 Sudoeste 14 Sudoeste 0 -- -- 72
2021-01-12 17:00:00 6.1 7 Sudoeste 17 Sudoeste 0 -- -- 65
2021-01-12 16:00:00 6.5 6 Sudoeste 16 Sudoeste 0 -- -- 64
2021-01-12 15:00:00 6 8 Oeste 19 Oeste 0 -- -- 65
2021-01-12 14:00:00 5.7 9 Oeste 19 Oeste 0 -- -- 65
2021-01-12 13:00:00 5.1 9 Sudoeste 17 Sudoeste 0 -- -- 67
2021-01-12 12:00:00 3.1 7 Sudoeste 15 Sudoeste 0 -- -- 73
2021-01-12 11:00:00 1.7 7 Sudoeste 15 Sur 0 -- -- 77
2021-01-12 10:00:00 0.7 9 Sur 18 Sur 0 -- -- 77
2021-01-12 09:00:00 0.8 8 Sur 19 Sudoeste 0 -- -- 78
2021-01-12 08:00:00 1 9 Sudoeste 18 Sur 0 -- -- 78
2021-01-12 07:00:00 0.4 10 Sudoeste 18 Sudoeste 0 -- -- 79
2021-01-12 06:00:00 -0.1 10 Sudoeste 18 Sur 0 -- -- 78
2021-01-12 05:00:00 -0.2 7 Sur 16 Sur 0 -- -- 78
2021-01-12 04:00:00 0.1 7 Sur 15 Sur 0 -- -- 78
2021-01-12 03:00:00 -0.2 10 Sudoeste 19 Sur 0 -- -- 78
2021-01-12 02:00:00 -0.6 10 Sudoeste 18 Sudoeste 0 -- -- 78
2021-01-12 01:00:00 0.5 8 Sudoeste 17 Sudoeste 0 -- -- 77
2021-01-12 00:00:00 0.4 4 Sur 13 Sudoeste 0 -- -- 83
2021-01-11 23:00:00 -0.3 6 Sur 11 Sur 0 -- -- 85
2021-01-11 22:00:00 -1.1 7 Sur 14 Sur 0 -- -- 88
2021-01-11 21:00:00 -2.4 9 Sur 11 Sur 0 -- -- 86
2021-01-11 20:00:00 -1.4 8 Sur 11 Sur 0 -- -- 83
2021-01-11 19:00:00 1.2 4 Sudoeste 12 Oeste 0 -- -- 76
2021-01-11 18:00:00 2.2 4 Sudoeste 21 Noroeste 0 -- -- 72
2021-01-11 17:00:00 4.6 7 Noroeste 18 Oeste 0 -- -- 65
2021-01-11 16:00:00 5 8 Oeste 20 Oeste 0 -- -- 66
2021-01-11 15:00:00 5.1 9 Noroeste 21 Oeste 0 -- -- 61
2021-01-11 14:00:00 4.7 11 Noroeste 22 Oeste 0 -- -- 63
2021-01-11 13:00:00 4.4 6 Oeste 18 Oeste 0 -- -- 67
2021-01-11 12:00:00 2.7 7 Oeste 20 Noroeste 0 -- -- 72
2021-01-11 11:00:00 2.4 10 Noroeste 26 Oeste 0 -- -- 72
2021-01-11 10:00:00 2.1 8 Noroeste 22 Noroeste 0 -- -- 73
2021-01-11 09:00:00 1.6 8 Oeste 16 Oeste 0 -- -- 76
2021-01-11 08:00:00 1.4 5 Oeste 22 Oeste 0 -- -- 77
2021-01-11 07:00:00 1.3 6 Oeste 19 Noroeste 0 -- -- 72
2021-01-11 06:00:00 1.6 8 Oeste 26 Noroeste 0 -- -- 72
2021-01-11 05:00:00 1.6 8 Noroeste 20 Noroeste 0 -- -- 72
2021-01-11 04:00:00 1.3 5 Oeste 19 Oeste 0 -- -- 75
2021-01-11 03:00:00 0.7 5 Oeste 16 Noroeste 0 -- -- 76
2021-01-11 02:00:00 1.1 7 Noroeste 17 Oeste 0 -- -- 76
2021-01-11 01:00:00 0.9 8 Noroeste 18 Noroeste 0 -- -- 78
2021-01-11 00:00:00 0.6 8 Noroeste 15 Noroeste 0 -- -- 78
2021-01-10 23:00:00 0.8 6 Oeste 15 Oeste 0 -- -- 77
2021-01-10 22:00:00 -0.8 5 Oeste 15 Oeste 0 -- -- 84
2021-01-10 21:00:00 -0.1 5 Oeste 21 Oeste 0 -- -- 78
2021-01-10 20:00:00 1 13 Noroeste 23 Noroeste 0 -- -- 75
2021-01-10 19:00:00 1.3 9 Noroeste 21 Noroeste 0 -- -- 79
2021-01-10 18:00:00 1.4 7 Oeste 21 Oeste 0 -- -- 82
2021-01-10 17:00:00 1.8 9 Noroeste 26 Noroeste 0 -- -- 81
2021-01-10 16:00:00 2 6 Oeste 19 Oeste 0 -- -- 81
2021-01-10 15:00:00 2.3 6 Oeste 18 Oeste 0 -- -- 79
2021-01-10 14:00:00 2.4 8 Oeste 18 Noroeste 0 -- -- 79
2021-01-10 13:00:00 2.2 7 Oeste 19 Oeste 0 -- -- 82
2021-01-10 12:00:00 1.9 9 Oeste 18 Oeste 0 -- -- 84
2021-01-10 11:00:00 1.5 6 Oeste 17 Oeste 0.2 -- -- 86
2021-01-10 10:00:00 1 5 Oeste 12 Noroeste 0.4 -- -- 90
2021-01-10 09:00:00 0.7 6 Noroeste 14 Oeste 0.2 -- -- 93
2021-01-10 08:00:00 0.3 3 Oeste 10 Sudoeste 0 -- -- 96
2021-01-10 07:00:00 0 3 Sudoeste 10 Sudoeste 0.6 -- -- 97
2021-01-10 06:00:00 -0.1 5 Sudoeste 13 Oeste 0.6 -- -- 97
2021-01-10 05:00:00 -0.4 3 Sudoeste 10 Sudoeste 0.8 -- -- 97
2021-01-10 04:00:00 -0.6 3 Sudoeste 8 Sudoeste 1.2 -- -- 97
2021-01-10 03:00:00 -0.8 3 Sur 10 Sur 0.4 -- -- 96
2021-01-10 02:00:00 -0.8 6 Sudoeste 9 Sudoeste 0.2 -- -- 96
2021-01-10 01:00:00 -1 4 Sudoeste 9 Sudoeste 0.4 -- -- 96
2021-01-10 00:00:00 -1 4 Sudoeste 13 Sudoeste 0.4 -- -- 95
2021-01-09 23:00:00 -1 5 Sudoeste 10 Sudoeste 0 -- -- 94
2021-01-09 22:00:00 -1.2 5 Sudoeste 9 Oeste 0.2 -- -- 95
2021-01-09 21:00:00 -1.1 3 Sudoeste 9 Oeste 0.2 -- -- 94
2021-01-09 20:00:00 -1.1 6 Oeste 12 Oeste 0.4 -- -- 94
2021-01-09 19:00:00 -0.9 4 Sudoeste 8 Sudoeste 0.2 -- -- 94
2021-01-09 18:00:00 -0.6 4 Sudoeste 9 Oeste 0 -- -- 92
2021-01-09 17:00:00 -0.3 3 Oeste 8 Oeste 0.6 -- -- 92
2021-01-09 16:00:00 -0.1 3 Sudoeste 12 Oeste 0.2 -- -- 90
2021-01-09 15:00:00 -0.4 5 Oeste 10 Oeste 0.6 -- -- 91
2021-01-09 14:00:00 -0.5 6 Oeste 12 Oeste 0.6 -- -- 90
2021-01-09 13:00:00 -0.6 5 Noroeste 12 Oeste 0.4 -- -- 90
2021-01-09 12:00:00 -0.8 2 Oeste 5 Oeste 1 -- -- 92
2021-01-09 11:00:00 -1.2 2 Noroeste 8 Noroeste 0.6 -- -- 92
2021-01-09 10:00:00 -1.3 0 Calma 10 Sur 0 -- -- 91
2021-01-09 09:00:00 -1.5 4 Sur 10 Sur 0 -- -- 92
2021-01-09 08:00:00 -1.4 3 Sur 6 Sudoeste 0 -- -- 92
2021-01-09 07:00:00 -1.4 3 Sudoeste 10 Oeste 0.2 -- -- 92
2021-01-09 06:00:00 -1.4 4 Oeste 9 Oeste 0.2 -- -- 93
2021-01-09 05:00:00 -1.1 3 Sudoeste 9 Sur 0.4 -- -- 92
2021-01-09 04:00:00 -0.9 4 Sur 10 Sur 0 -- -- 89
2021-01-09 03:00:00 -0.6 4 Sur 10 Sur 0 -- -- 84
2021-01-09 02:00:00 -0.5 4 Sur 9 Sur 0 -- -- 80
2021-01-09 01:00:00 -0.3 4 Sudoeste 14 Oeste 0 -- -- 77
2021-01-09 00:00:00 -0.3 5 Sudoeste 16 Oeste 0 -- -- 77
2021-01-08 23:00:00 -0.2 3 Sudoeste 12 Oeste 0 -- -- 79
2021-01-08 22:00:00 -0.1 5 Sudoeste 12 Oeste 0 -- -- 79
2021-01-08 21:00:00 0.2 7 Sudoeste 15 Sudoeste 0 -- -- 77
2021-01-08 20:00:00 0.2 4 Sudoeste 9 Sudoeste 0 -- -- 77
2021-01-08 19:00:00 0.1 5 Sudoeste 9 Sudoeste 0 -- -- 77
2021-01-08 18:00:00 0.7 4 Sudoeste 8 Sudoeste 0 -- -- 73
2021-01-08 17:00:00 1.3 3 Sudoeste 9 Oeste 0 -- -- 70
2021-01-08 16:00:00 1.6 4 Sudoeste 11 Noroeste 0 -- -- 69
2021-01-08 15:00:00 1.5 4 Sudoeste 14 Oeste 0 -- -- 69
2021-01-08 14:00:00 1.2 8 Oeste 19 Sudoeste 0 -- -- 71
2021-01-08 13:00:00 0.6 5 Oeste 15 Sudoeste 0 -- -- 72
2021-01-08 12:00:00 0 4 Oeste 14 Oeste 0 -- -- 74
2021-01-08 11:00:00 -0.5 8 Oeste 15 Oeste 0 -- -- 75
2021-01-08 10:00:00 -1.4 7 Oeste 14 Oeste 0 -- -- 78
2021-01-08 09:00:00 -1.7 5 Oeste 15 Oeste 0 -- -- 79
2021-01-08 08:00:00 -1.8 4 Sudoeste 15 Sudoeste 0 -- -- 78
2021-01-08 07:00:00 -1.5 5 Sudoeste 12 Sudoeste 0 -- -- 77
2021-01-08 06:00:00 -1.3 5 Oeste 11 Oeste 0 -- -- 79
2021-01-08 05:00:00 -0.5 5 Oeste 13 Oeste 0 -- -- 73
2021-01-08 04:00:00 -0.1 5 Oeste 12 Oeste 0 -- -- 73
2021-01-08 03:00:00 -0.1 5 Oeste 12 Oeste 0 -- -- 75
2021-01-08 02:00:00 0.1 5 Oeste 10 Oeste 0 -- -- 76
2021-01-08 01:00:00 0.2 7 Oeste 18 Noroeste 0 -- -- 75
2021-01-08 00:00:00 0.4 9 Noroeste 17 Noroeste 0 -- -- 77
2021-01-07 23:00:00 0.2 5 Oeste 12 Oeste 0 -- -- 80
2021-01-07 22:00:00 -1 3 Sur 10 Sudoeste 0 -- -- 86
2021-01-07 21:00:00 -1.4 5 Sur 11 Sur 0 -- -- 86
2021-01-07 20:00:00 -0.9 6 Sur 10 Sur 0 -- -- 85
2021-01-07 19:00:00 0.4 6 Sudoeste 9 Oeste 0 -- -- 82
2021-01-07 18:00:00 2.3 5 Oeste 12 Noroeste 0 -- -- 75
2021-01-07 17:00:00 4.7 5 Oeste 10 Oeste 0 -- -- 63
2021-01-07 16:00:00 4.7 5 Oeste 9 Oeste 0 -- -- 63
2021-01-07 15:00:00 3.8 3 Nordeste 10 Nordeste 0 -- -- 71
2021-01-07 14:00:00 2.6 3 Oeste 9 Noroeste 0 -- -- 72
2021-01-07 13:00:00 0.2 4 Norte 9 Norte 0 -- -- 80
2021-01-07 12:00:00 -2.1 3 Norte 8 Noroeste 0 -- -- 87
2021-01-07 11:00:00 -3.1 4 Norte 8 Norte 0 -- -- 91
2021-01-07 10:00:00 -4.3 0 Calma 3 Este 0 -- -- 93
2021-01-07 09:00:00 -4.7 0 Calma 6 Norte 0 -- -- 92
2021-01-07 08:00:00 -5 0 Calma 6 Sur 0 -- -- 90
2021-01-07 07:00:00 -4.8 4 Sur 6 Sur 0 -- -- 89
2021-01-07 06:00:00 -4.3 0 Calma 5 Sudeste 0 -- -- 88
2021-01-07 05:00:00 -3.6 4 Sur 14 Sudoeste 0 -- -- 84
2021-01-07 04:00:00 -3.5 4 Sur 7 Sur 0 -- -- 84
2021-01-07 03:00:00 -3 4 Sur 10 Sur 0 -- -- 82
2021-01-07 02:00:00 -2.7 5 Sur 13 Sur 0 -- -- 83
2021-01-07 01:00:00 -2.3 2 Sur 11 Sur 0 -- -- 82
2021-01-07 00:00:00 -1.8 6 Sur 10 Sur 0 -- -- 81
2021-01-06 23:00:00 -1.3 7 Sur 12 Sur 0 -- -- 82
2021-01-06 22:00:00 -0.9 5 Sur 14 Sudoeste 0 -- -- 80
2021-01-06 21:00:00 -0.6 5 Sur 14 Sudoeste 0 -- -- 81
2021-01-06 20:00:00 0.1 4 Sur 9 Sur 0 -- -- 78
2021-01-06 19:00:00 1.3 5 Sur 10 Sur 0 -- -- 75
2021-01-06 18:00:00 3.9 0 Calma 4 Noroeste 0 -- -- 62
2021-01-06 17:00:00 7.3 2 Noroeste 7 Sur 0 -- -- 48
2021-01-06 16:00:00 6.8 3 Este 9 Sudeste 0 -- -- 51
2021-01-06 15:00:00 5.4 0 Calma 9 Norte 0 -- -- 60
2021-01-06 14:00:00 5.6 4 Noroeste 8 Norte 0 -- -- 61
2021-01-06 13:00:00 4.7 3 Norte 7 Nordeste 0 -- -- 68
2021-01-06 12:00:00 3.7 3 Nordeste 6 Este 0 -- -- 74
2021-01-06 11:00:00 2.3 3 Nordeste 7 Norte 0 -- -- 79
2021-01-06 10:00:00 1 3 Sudoeste 8 Sur 0 -- -- 78
2021-01-06 09:00:00 0.6 3 Oeste 15 Sur 0 -- -- 81
2021-01-06 08:00:00 0.6 3 Sur 9 Sudoeste 0 -- -- 80
2021-01-06 07:00:00 0.6 4 Sur 9 Sudoeste 0 -- -- 80
2021-01-06 06:00:00 0.8 4 Sudoeste 10 Sudoeste 0 -- -- 83
2021-01-06 05:00:00 1 5 Sur 8 Sudeste 0 -- -- 83
2021-01-06 04:00:00 1.1 3 Sudoeste 7 Sur 0 -- -- 84
2021-01-06 03:00:00 1.3 2 Sur 4 Sudoeste 0 -- -- 89
2021-01-06 02:00:00 1.4 3 Sudeste 6 Sur 0 -- -- 88
2021-01-06 01:00:00 1.6 0 Calma 4 Sur 0 -- -- 85
2021-01-06 00:00:00 1.6 3 Sudoeste 4 Sur 0 -- -- 86
2021-01-05 23:00:00 1.7 3 Sur 5 Sur 0 -- -- 84
2021-01-05 22:00:00 1.8 3 Sur 9 Oeste 0 -- -- 83
2021-01-05 21:00:00 2 4 Sur 15 Noroeste 0 -- -- 79
2021-01-05 20:00:00 1.9 5 Oeste 18 Oeste 0 -- -- 77
2021-01-05 19:00:00 2.1 10 Noroeste 20 Oeste 0 -- -- 78
2021-01-05 18:00:00 3 4 Oeste 14 Sudoeste 0 -- -- 76
2021-01-05 17:00:00 3.4 3 Sudoeste 16 Sudoeste 0 -- -- 74
2021-01-05 16:00:00 2.9 7 Oeste 16 Oeste 0 -- -- 74
2021-01-05 15:00:00 2.8 8 Oeste 19 Oeste 0 -- -- 76
2021-01-05 14:00:00 2.4 7 Oeste 21 Oeste 0 -- -- 78
2021-01-05 13:00:00 2.9 9 Oeste 19 Oeste 0 -- -- 75
2021-01-05 12:00:00 2.6 2 Nordeste 8 Sur 0 -- -- 82
2021-01-05 11:00:00 1.6 2 Sudoeste 8 Sudeste 0 -- -- 85
2021-01-05 10:00:00 1 4 Sudeste 6 Sudeste 0 -- -- 86
2021-01-05 09:00:00 0.9 3 Noroeste 11 Oeste 0 -- -- 83
2021-01-05 08:00:00 0.9 2 Este 10 Sur 0 -- -- 87
2021-01-05 07:00:00 1 3 Sur 10 Sudoeste 0 -- -- 82
2021-01-05 06:00:00 1 3 Sudoeste 8 Oeste 0 -- -- 82
2021-01-05 05:00:00 1.1 4 Sudoeste 12 Sudoeste 0 -- -- 83
2021-01-05 04:00:00 1 6 Sudoeste 18 Noroeste 0 -- -- 86
2021-01-05 03:00:00 0 5 Sur 13 Sur 0 -- -- 85
2021-01-05 02:00:00 0.3 3 Sur 8 Oeste 0 -- -- 83
2021-01-05 01:00:00 1.1 4 Oeste 13 Oeste 0 -- -- 77
2021-01-05 00:00:00 2 9 Sudoeste 19 Sudoeste 0 -- -- 75
2021-01-04 23:00:00 2 9 Oeste 16 Oeste 0 -- -- 79
2021-01-04 22:00:00 2 4 Sudoeste 13 Oeste 0 -- -- 79
2021-01-04 21:00:00 1.9 3 Oeste 13 Oeste 0 -- -- 81
2021-01-04 20:00:00 1.7 7 Sudoeste 16 Oeste 0 -- -- 83
2021-01-04 19:00:00 2 7 Sudoeste 26 Oeste 0 -- -- 82
2021-01-04 18:00:00 2.8 8 Oeste 21 Oeste 0 -- -- 78
2021-01-04 17:00:00 3.1 13 Oeste 32 Oeste 0 -- -- 77
2021-01-04 16:00:00 3.6 12 Oeste 38 Oeste 0 -- -- 73
2021-01-04 15:00:00 3.6 14 Oeste 30 Oeste 0 -- -- 71
2021-01-04 14:00:00 3.7 9 Oeste 22 Sudoeste 0 -- -- 72
2021-01-04 13:00:00 2.5 9 Oeste 21 Noroeste 0 -- -- 78
2021-01-04 12:00:00 1.7 2 Sudoeste 15 Noroeste 0 -- -- 85
2021-01-04 11:00:00 1.1 9 Oeste 20 Oeste 0 -- -- 84
2021-01-04 10:00:00 -1.2 2 Este 8 Sudeste 0 -- -- 96
2021-01-04 09:00:00 -2.2 0 Calma 6 Sudeste 0 -- -- 95
2021-01-04 08:00:00 -1.8 0 Calma 7 Nordeste 0 -- -- 95
2021-01-04 07:00:00 -1.6 0 Calma 9 Este 0 -- -- 95
2021-01-04 06:00:00 -1 2 Sudoeste 8 Este 0 -- -- 94
2021-01-04 05:00:00 -0.5 2 Nordeste 6 Oeste 0 -- -- 95
2021-01-04 04:00:00 -0.1 4 Sur 8 Sur 0 -- -- 95
2021-01-04 03:00:00 0.4 3 Oeste 6 Sur 0 -- -- 95
2021-01-04 02:00:00 0.7 3 Este 5 Sudeste 0 -- -- 94
2021-01-04 01:00:00 1.1 3 Sudoeste 10 Sudoeste 0 -- -- 93
2021-01-04 00:00:00 1.2 6 Sudoeste 15 Sudoeste 0 -- -- 93
2021-01-03 23:00:00 1.3 5 Sudoeste 10 Sudoeste 0 -- -- 93
2021-01-03 22:00:00 0.9 4 Sudoeste 11 Sur 0 -- -- 96
2021-01-03 21:00:00 0.6 6 Sudoeste 10 Sudoeste 0.8 -- -- 96
2021-01-03 20:00:00 0.6 5 Sur 19 Oeste 3.2 -- -- 95
2021-01-03 19:00:00 1.1 9 Oeste 33 Noroeste 1.4 -- -- 91
2021-01-03 18:00:00 3.5 6 Nordeste 10 Nordeste 0 -- -- 83
2021-01-03 17:00:00 4 2 Este 13 Nordeste 0 -- -- 81
2021-01-03 16:00:00 4.2 4 Sudeste 25 Oeste 0 -- -- 79
2021-01-03 15:00:00 4.5 8 Noroeste 22 Noroeste 0 -- -- 75
2021-01-03 14:00:00 3.9 7 Oeste 22 Oeste 0 -- -- 78
2021-01-03 13:00:00 3.4 4 Noroeste 15 Oeste 0 -- -- 80
2021-01-03 12:00:00 3.1 4 Noroeste 14 Oeste 0 -- -- 84
2021-01-03 11:00:00 2.4 3 Sudoeste 5 Sudoeste 0 -- -- 90
2021-01-03 10:00:00 1.5 3 Sur 22 Oeste 0.6 -- -- 93
2021-01-03 09:00:00 1.9 5 Oeste 17 Oeste 0 -- -- 85
2021-01-03 08:00:00 2.2 5 Sur 15 Sudoeste 0 -- -- 80
2021-01-03 07:00:00 1.4 3 Sudoeste 15 Oeste 0 -- -- 86
2021-01-03 06:00:00 1.9 2 Sudoeste 14 Sudoeste 0 -- -- 83
2021-01-03 05:00:00 1.6 5 Sudoeste 15 Oeste 0 -- -- 85
2021-01-03 04:00:00 1.9 7 Oeste 16 Sudoeste 0 -- -- 82
2021-01-03 03:00:00 1.3 3 Sudoeste 12 Oeste 0 -- -- 85
2021-01-03 02:00:00 1.5 0 Calma 16 Oeste 0 -- -- 86
2021-01-03 01:00:00 1.6 6 Oeste 15 Oeste 0 -- -- 85
2021-01-03 00:00:00 1.8 7 Oeste 20 Oeste 0 -- -- 82
2021-01-02 23:00:00 1.7 9 Oeste 17 Oeste 0 -- -- 81
2021-01-02 22:00:00 1.9 6 Oeste 19 Sudoeste 0 -- -- 81
2021-01-02 21:00:00 2.3 6 Oeste 19 Oeste 0 -- -- 75
2021-01-02 20:00:00 2.2 16 Oeste 30 Oeste 0 -- -- 77
2021-01-02 19:00:00 2.2 7 Oeste 22 Oeste 0 -- -- 77
2021-01-02 18:00:00 2.1 12 Oeste 26 Oeste 0 -- -- 78
2021-01-02 17:00:00 2.4 13 Oeste 26 Oeste 0 -- -- 78
2021-01-02 16:00:00 2.5 12 Oeste 28 Noroeste 0 -- -- 83
2021-01-02 15:00:00 1.7 10 Oeste 24 Oeste 0 -- -- 89
2021-01-02 14:00:00 1.6 10 Oeste 26 Oeste 0 -- -- 91